createdAt,value
2022-08-12T00:01:12.689Z,16.50
2022-08-12T00:03:58.703Z,16.50
2022-08-12T00:06:47.928Z,16.50
2022-08-12T00:09:33.927Z,16.40
2022-08-12T00:12:20.329Z,16.40
2022-08-12T00:15:07.854Z,16.40
2022-08-12T00:17:53.891Z,16.30
2022-08-12T00:20:39.473Z,16.30
2022-08-12T00:23:27.062Z,16.30
2022-08-12T00:26:22.993Z,16.30
2022-08-12T00:29:11.360Z,16.20
2022-08-12T00:31:58.013Z,16.20
2022-08-12T00:34:46.028Z,16.20
2022-08-12T00:37:35.058Z,16.10
2022-08-12T00:40:23.590Z,16.10
2022-08-12T00:42:53.665Z,16.00
2022-08-12T00:45:22.549Z,15.90
2022-08-12T00:47:55.025Z,15.80
2022-08-12T00:50:26.553Z,15.80
2022-08-12T00:52:54.706Z,15.80
2022-08-12T00:55:24.280Z,15.70
2022-08-12T00:57:52.414Z,15.70
2022-08-12T01:00:23.939Z,15.70
2022-08-12T01:02:58.518Z,15.50
2022-08-12T01:05:45.614Z,15.50
2022-08-12T01:08:31.557Z,15.50
2022-08-12T01:11:18.802Z,15.40
2022-08-12T01:13:50.314Z,15.30
2022-08-12T01:16:22.776Z,15.30
2022-08-12T01:18:55.038Z,15.30
2022-08-12T01:21:55.585Z,15.20
2022-08-12T01:24:54.819Z,15.00
2022-08-12T01:27:25.630Z,15.10
2022-08-12T01:29:55.537Z,15.00
2022-08-12T01:32:27.581Z,15.00
2022-08-12T01:35:04.552Z,15.00
2022-08-12T01:37:57.430Z,14.90
2022-08-12T01:40:37.274Z,14.90
2022-08-12T01:43:10.836Z,14.80
2022-08-12T01:45:57.436Z,14.80
2022-08-12T01:48:44.264Z,14.80
2022-08-12T01:52:16.390Z,14.80
2022-08-12T01:54:31.146Z,14.80
2022-08-12T01:57:14.815Z,14.70
2022-08-12T01:59:59.217Z,14.70
2022-08-12T02:02:35.086Z,14.70
2022-08-12T02:05:34.451Z,14.60
2022-08-12T02:08:36.143Z,14.50
2022-08-12T02:11:21.403Z,14.40
2022-08-12T02:14:48.605Z,14.40
2022-08-12T02:17:55.876Z,14.40
2022-08-12T02:20:51.585Z,14.40
2022-08-12T02:23:27.880Z,14.40
2022-08-12T02:26:02.506Z,14.40
2022-08-12T02:28:31.882Z,14.40
2022-08-12T02:31:06.860Z,14.40
2022-08-12T02:33:37.698Z,14.40
2022-08-12T02:36:07.286Z,14.40
2022-08-12T02:38:37.403Z,14.30
2022-08-12T02:41:11.046Z,14.30
2022-08-12T02:43:49.343Z,14.30
2022-08-12T02:46:27.572Z,14.30
2022-08-12T02:49:06.213Z,14.20
2022-08-12T02:51:40.490Z,14.10
2022-08-12T02:54:09.419Z,14.10
2022-08-12T02:56:50.374Z,14.10
2022-08-12T02:59:24.374Z,14.10
2022-08-12T03:01:56.830Z,14.10
2022-08-12T03:04:31.521Z,14.10
2022-08-12T03:07:10.543Z,14.10
2022-08-12T03:10:03.870Z,14.10
2022-08-12T03:12:48.736Z,14.10
2022-08-12T03:15:22.930Z,14.10
2022-08-12T03:18:24.583Z,14.00
2022-08-12T03:20:47.873Z,14.00
2022-08-12T03:23:29.341Z,13.90
2022-08-12T03:26:02.908Z,13.90
2022-08-12T03:28:54.111Z,13.80
2022-08-12T03:31:25.837Z,13.80
2022-08-12T03:34:03.090Z,13.80
2022-08-12T03:36:35.814Z,13.70
2022-08-12T03:39:36.305Z,13.70
2022-08-12T03:42:22.063Z,13.70
2022-08-12T03:45:25.667Z,13.60
2022-08-12T03:48:19.091Z,13.60
2022-08-12T03:51:07.753Z,13.60
2022-08-12T03:53:56.281Z,13.60
2022-08-12T03:56:42.332Z,13.50
2022-08-12T03:59:29.292Z,13.40
2022-08-12T04:01:58.792Z,13.50
2022-08-12T04:04:34.852Z,13.50
2022-08-12T04:07:07.805Z,13.60
2022-08-12T04:09:39.598Z,13.70
2022-08-12T04:12:27.531Z,13.70
2022-08-12T04:15:03.227Z,13.70
2022-08-12T04:17:32.939Z,13.80
2022-08-12T04:20:01.580Z,13.80
2022-08-12T04:22:31.811Z,13.90
2022-08-12T04:25:01.986Z,14.10
2022-08-12T04:27:32.792Z,14.10
2022-08-12T04:30:29.263Z,14.20
2022-08-12T04:32:52.219Z,14.30
2022-08-12T04:35:22.440Z,14.50
2022-08-12T04:37:58.627Z,14.60
2022-08-12T04:40:32.556Z,14.70
2022-08-12T04:43:02.161Z,14.90
2022-08-12T04:45:31.406Z,15.10
2022-08-12T04:47:59.988Z,15.20
2022-08-12T04:50:36.330Z,15.30
2022-08-12T04:53:09.201Z,15.40
2022-08-12T04:55:41.019Z,15.50
2022-08-12T04:58:09.901Z,15.70
2022-08-12T05:00:39.281Z,15.90
2022-08-12T05:03:08.512Z,16.10
2022-08-12T05:05:38.639Z,16.20
2022-08-12T05:08:16.234Z,16.30
2022-08-12T05:10:46.488Z,16.50
2022-08-12T05:13:19.780Z,16.60
2022-08-12T05:16:03.784Z,16.80
2022-08-12T05:18:35.395Z,16.90
2022-08-12T05:21:09.087Z,17.00
2022-08-12T05:23:40.636Z,17.00
2022-08-12T05:26:11.001Z,17.20
2022-08-12T05:28:39.135Z,17.30
2022-08-12T05:31:08.065Z,17.40
2022-08-12T05:33:40.182Z,17.60
2022-08-12T05:36:12.642Z,17.80
2022-08-12T05:38:58.517Z,18.00
2022-08-12T05:41:30.351Z,18.30
2022-08-12T05:44:01.358Z,18.70
2022-08-12T05:46:32.243Z,19.10
2022-08-12T05:49:01.740Z,19.40
2022-08-12T05:51:39.699Z,19.80
2022-08-12T05:54:12.803Z,20.20
2022-08-12T05:56:41.987Z,20.60
2022-08-12T05:59:12.694Z,20.70
2022-08-12T06:02:11.807Z,20.90
2022-08-12T06:04:32.253Z,21.10
2022-08-12T06:07:01.800Z,21.40
2022-08-12T06:09:31.717Z,21.80
2022-08-12T06:12:04.406Z,21.70
2022-08-12T06:14:35.114Z,21.90
2022-08-12T06:17:04.494Z,22.20
2022-08-12T06:20:26.298Z,22.60
2022-08-12T06:22:21.050Z,22.70
2022-08-12T06:24:52.893Z,22.80
2022-08-12T06:27:21.583Z,22.80
2022-08-12T06:30:09.489Z,23.00
2022-08-12T06:32:51.949Z,23.10
2022-08-12T06:35:48.301Z,23.40
2022-08-12T06:38:19.458Z,23.50
2022-08-12T06:41:10.574Z,23.60
2022-08-12T06:44:06.744Z,23.80
2022-08-12T06:46:30.774Z,24.10
2022-08-12T06:48:59.821Z,24.00
2022-08-12T06:51:30.895Z,24.00
2022-08-12T06:54:01.053Z,24.20
2022-08-12T06:57:01.814Z,23.90
2022-08-12T06:59:21.152Z,24.10
2022-08-12T07:01:51.186Z,24.40
2022-08-12T07:04:38.423Z,24.80
2022-08-12T07:07:09.056Z,24.90
2022-08-12T07:10:01.581Z,25.20
2022-08-12T07:12:30.503Z,25.40
2022-08-12T07:15:01.657Z,25.50
2022-08-12T07:17:37.427Z,25.50
2022-08-12T07:20:29.773Z,25.60
2022-08-12T07:23:01.290Z,25.80
2022-08-12T07:25:40.490Z,25.90
2022-08-12T07:28:16.254Z,26.20
2022-08-12T07:30:49.487Z,26.30
2022-08-12T07:33:22.308Z,26.40
2022-08-12T07:35:54.504Z,26.50
2022-08-12T07:38:30.466Z,26.50
2022-08-12T07:41:05.591Z,26.50
2022-08-12T07:43:39.125Z,26.30
2022-08-12T07:46:11.226Z,26.50
2022-08-12T07:48:43.416Z,26.80
2022-08-12T07:51:12.298Z,27.10
2022-08-12T07:54:00.807Z,27.20
2022-08-12T07:56:32.541Z,27.30
2022-08-12T07:59:03.148Z,27.30
2022-08-12T08:01:33.805Z,27.50
2022-08-12T08:04:19.779Z,27.50
2022-08-12T08:06:49.200Z,27.60
2022-08-12T08:09:22.183Z,27.70
2022-08-12T08:12:08.793Z,27.80
2022-08-12T08:14:40.550Z,27.70
2022-08-12T08:17:10.362Z,27.60
2022-08-12T08:20:02.960Z,27.20
2022-08-12T08:22:41.527Z,26.90
2022-08-12T08:25:36.630Z,27.00
2022-08-12T08:28:01.737Z,27.00
2022-08-12T08:30:36.464Z,27.50
2022-08-12T08:33:22.956Z,27.80
2022-08-12T08:35:54.314Z,28.30
2022-08-12T08:38:33.304Z,28.10
2022-08-12T08:42:15.897Z,28.10
2022-08-12T08:44:12.602Z,28.40
2022-08-12T08:46:44.501Z,28.70
2022-08-12T08:49:14.623Z,28.40
2022-08-12T08:51:45.227Z,28.30
2022-08-12T08:54:14.413Z,28.00
2022-08-12T08:56:44.009Z,27.70
2022-08-12T08:59:14.139Z,27.70
2022-08-12T09:01:44.958Z,27.30
2022-08-12T09:05:11.944Z,27.40
2022-08-12T09:07:17.755Z,27.50
2022-08-12T09:10:02.361Z,27.70
2022-08-12T09:12:54.991Z,27.70
2022-08-12T09:18:26.494Z,28.30
2022-08-12T09:20:59.245Z,28.70
2022-08-12T09:23:59.826Z,29.30
2022-08-12T09:26:19.697Z,29.70
2022-08-12T09:32:03.543Z,29.60
2022-08-12T09:34:27.533Z,29.80
2022-08-12T09:37:18.716Z,29.70
2022-08-12T09:40:04.171Z,29.70
2022-08-12T09:46:19.910Z,29.90
2022-08-12T09:48:36.074Z,29.90
2022-08-12T09:51:17.163Z,29.40
2022-08-12T09:54:05.925Z,29.20
2022-08-12T09:57:00.420Z,28.90
2022-08-12T10:00:14.910Z,28.40
2022-08-12T10:02:53.158Z,28.30
2022-08-12T10:05:13.880Z,28.40
2022-08-12T10:07:47.339Z,28.50
2022-08-12T10:10:23.792Z,28.60
2022-08-12T10:13:34.869Z,28.60
2022-08-12T10:16:06.215Z,28.50
2022-08-12T10:18:51.900Z,28.40
2022-08-12T10:21:35.712Z,28.40
2022-08-12T10:24:08.465Z,28.40
2022-08-12T10:26:56.659Z,28.20
2022-08-12T10:30:37.779Z,28.30
2022-08-12T10:32:43.831Z,28.20
2022-08-12T10:35:16.676Z,28.40
2022-08-12T10:38:35.790Z,28.50
2022-08-12T10:40:58.656Z,28.50
2022-08-12T10:43:54.072Z,28.40
2022-08-12T10:46:31.249Z,28.40
2022-08-12T10:49:05.969Z,28.50
2022-08-12T10:52:32.863Z,29.10
2022-08-12T10:54:41.582Z,29.60
2022-08-12T10:57:18.323Z,30.00
2022-08-12T11:00:31.207Z,29.90
2022-08-12T11:04:19.203Z,29.60
2022-08-12T11:07:08.851Z,29.50
2022-08-12T11:08:42.014Z,29.60
2022-08-12T11:11:27.689Z,29.90
2022-08-12T11:14:08.820Z,29.90
2022-08-12T11:17:33.763Z,30.00
2022-08-12T11:19:46.540Z,30.10
2022-08-12T11:22:14.792Z,30.20
2022-08-12T11:24:51.578Z,30.40
2022-08-12T11:27:20.138Z,30.50
2022-08-12T11:30:05.212Z,30.40
2022-08-12T11:32:39.002Z,30.60
2022-08-12T11:35:11.499Z,30.90
2022-08-12T11:37:58.191Z,30.70
2022-08-12T11:40:28.615Z,30.30
2022-08-12T11:43:01.877Z,29.90
2022-08-12T11:45:52.800Z,29.60
2022-08-12T11:48:27.179Z,29.60
2022-08-12T11:50:56.705Z,29.50
2022-08-12T11:53:58.233Z,29.50
2022-08-12T11:56:14.669Z,29.60
2022-08-12T12:02:02.016Z,29.50
2022-08-12T12:04:29.244Z,29.30
2022-08-12T12:07:06.721Z,29.30
2022-08-12T12:09:52.383Z,29.40
2022-08-12T12:12:24.973Z,29.80
2022-08-12T12:14:55.058Z,29.90
2022-08-12T12:17:25.827Z,29.70
2022-08-12T12:19:55.238Z,29.80
2022-08-12T12:22:27.063Z,29.70
2022-08-12T12:25:09.027Z,30.00
2022-08-12T12:28:05.984Z,30.00
2022-08-12T12:30:35.197Z,30.30
2022-08-12T12:33:07.053Z,30.20
2022-08-12T12:36:18.440Z,29.90
2022-08-12T12:38:25.676Z,29.70
2022-08-12T12:40:54.096Z,29.60
2022-08-12T12:43:29.162Z,29.70
2022-08-12T12:46:11.368Z,29.60
2022-08-12T12:48:44.605Z,29.90
2022-08-12T12:51:49.030Z,30.00
2022-08-12T12:54:10.535Z,29.90
2022-08-12T12:56:42.706Z,29.80
2022-08-12T12:59:56.512Z,30.20
2022-08-12T13:02:08.098Z,31.40
2022-08-12T13:04:38.259Z,32.80
2022-08-12T13:07:07.071Z,32.90
2022-08-12T13:09:36.650Z,33.00
2022-08-12T13:12:08.869Z,32.60
2022-08-12T13:14:39.948Z,33.00
2022-08-12T13:17:11.331Z,32.80
2022-08-12T13:19:48.239Z,31.90
2022-08-12T13:22:20.008Z,31.80
2022-08-12T13:24:54.697Z,32.60
2022-08-12T13:27:34.513Z,32.50
2022-08-12T13:30:11.115Z,31.60
2022-08-12T13:32:42.862Z,30.80
2022-08-12T13:35:20.296Z,30.40
2022-08-12T13:38:03.398Z,30.50
2022-08-12T13:40:34.510Z,30.80
2022-08-12T13:43:06.823Z,30.60
2022-08-12T13:45:36.714Z,30.60
2022-08-12T13:48:07.443Z,30.70
2022-08-12T13:50:39.347Z,30.70
2022-08-12T13:53:26.196Z,30.50
2022-08-12T13:56:01.935Z,30.20
2022-08-12T13:58:32.925Z,30.00
2022-08-12T14:01:05.950Z,29.90
2022-08-12T14:03:50.255Z,30.30
2022-08-12T14:06:26.009Z,31.10
2022-08-12T14:08:59.606Z,30.90
2022-08-12T14:11:28.209Z,30.60
2022-08-12T14:14:03.576Z,30.50
2022-08-12T14:16:49.250Z,30.20
2022-08-12T14:19:25.569Z,30.10
2022-08-12T14:21:59.049Z,29.80
2022-08-12T14:24:40.607Z,29.80
2022-08-12T14:27:11.291Z,30.70
2022-08-12T14:30:04.540Z,31.80
2022-08-12T14:32:34.633Z,32.90
2022-08-12T14:35:08.986Z,34.10
2022-08-12T14:37:56.932Z,34.80
2022-08-12T14:40:29.585Z,34.40
2022-08-12T14:42:59.504Z,34.00
2022-08-12T14:45:44.235Z,33.00
2022-08-12T14:48:19.535Z,32.80
2022-08-12T14:52:16.012Z,33.10
2022-08-12T14:54:49.923Z,33.20
2022-08-12T14:59:56.710Z,33.50
2022-08-12T15:02:28.544Z,33.50
2022-08-12T15:04:59.040Z,34.10
2022-08-12T15:07:34.018Z,34.30
2022-08-12T15:10:25.395Z,34.40
2022-08-12T15:13:07.400Z,33.60
2022-08-12T15:15:44.272Z,33.40
2022-08-12T15:18:21.475Z,33.50
2022-08-12T15:20:51.603Z,33.90
2022-08-12T15:23:21.759Z,33.80
2022-08-12T15:25:59.877Z,33.50
2022-08-12T15:28:34.699Z,33.50
2022-08-12T15:31:09.562Z,33.40
2022-08-12T15:33:54.267Z,33.60
2022-08-12T15:36:53.709Z,33.60
2022-08-12T15:39:17.185Z,33.40
2022-08-12T15:41:50.389Z,32.80
2022-08-12T15:44:42.303Z,32.70
2022-08-12T15:47:09.416Z,32.70
2022-08-12T15:49:54.803Z,31.90
2022-08-12T15:52:30.824Z,31.10
2022-08-12T15:55:06.012Z,30.30
2022-08-12T15:57:53.198Z,29.90
2022-08-12T16:00:33.274Z,29.70
2022-08-12T16:03:05.481Z,29.50
2022-08-12T16:06:16.836Z,29.50
2022-08-12T16:08:27.349Z,29.30
2022-08-12T16:10:56.408Z,29.10
2022-08-12T16:13:34.385Z,29.00
2022-08-12T16:16:22.807Z,29.10
2022-08-12T16:18:58.661Z,29.20
2022-08-12T16:21:52.336Z,29.30
2022-08-12T16:24:18.658Z,29.30
2022-08-12T16:26:51.162Z,29.30
2022-08-12T16:29:38.613Z,29.30
2022-08-12T16:32:24.174Z,29.30
2022-08-12T16:34:55.927Z,29.20
2022-08-12T16:37:32.717Z,29.10
2022-08-12T16:40:14.375Z,29.10
2022-08-12T16:43:01.427Z,29.10
2022-08-12T16:46:05.429Z,29.00
2022-08-12T16:48:34.861Z,29.00
2022-08-12T16:51:09.389Z,28.80
2022-08-12T16:53:44.699Z,28.80
2022-08-12T16:56:17.104Z,28.70
2022-08-12T16:58:46.996Z,28.50
2022-08-12T17:01:19.763Z,28.40
2022-08-12T17:04:08.204Z,28.30
2022-08-12T17:06:41.580Z,28.20
2022-08-12T17:09:17.236Z,28.00
2022-08-12T17:11:49.564Z,28.00
2022-08-12T17:14:23.602Z,27.90
2022-08-12T17:16:56.052Z,27.90
2022-08-12T17:20:16.039Z,27.90
2022-08-12T17:22:16.857Z,27.90
2022-08-12T17:24:55.725Z,28.00
2022-08-12T17:27:26.757Z,28.10
2022-08-12T17:30:04.766Z,28.20
2022-08-12T17:32:37.222Z,28.10
2022-08-12T17:35:29.609Z,28.10
2022-08-12T17:38:02.132Z,28.10
2022-08-12T17:40:35.986Z,28.00
2022-08-12T17:43:56.488Z,27.90
2022-08-12T17:45:59.950Z,27.90
2022-08-12T17:48:35.068Z,27.80
2022-08-12T17:51:15.728Z,27.80
2022-08-12T17:54:10.109Z,27.70
2022-08-12T17:56:37.974Z,27.70
2022-08-12T17:59:12.417Z,27.50
2022-08-12T18:01:45.629Z,27.50
2022-08-12T18:04:23.421Z,27.40
2022-08-12T18:07:08.254Z,27.30
2022-08-12T18:09:38.033Z,27.20
2022-08-12T18:12:26.866Z,27.10
2022-08-12T18:14:58.553Z,27.00
2022-08-12T18:17:28.666Z,27.00
2022-08-12T18:20:05.871Z,26.90
2022-08-12T18:22:39.530Z,26.80
2022-08-12T18:26:13.036Z,26.80
2022-08-12T18:28:15.441Z,26.70
2022-08-12T18:30:53.504Z,26.70
2022-08-12T18:33:25.741Z,26.60
2022-08-12T18:35:57.123Z,26.50
2022-08-12T18:38:27.939Z,26.50
2022-08-12T18:41:21.697Z,26.50
2022-08-12T18:44:02.683Z,26.50
2022-08-12T18:46:55.358Z,26.40
2022-08-12T18:49:32.061Z,26.30
2022-08-12T18:52:11.989Z,26.20
2022-08-12T18:54:49.362Z,26.20
2022-08-12T18:58:07.542Z,26.00
2022-08-12T19:00:20.939Z,26.00
2022-08-12T19:02:53.406Z,25.90
2022-08-12T19:05:24.382Z,25.90
2022-08-12T19:08:15.603Z,25.80
2022-08-12T19:10:50.566Z,25.70
2022-08-12T19:13:39.348Z,25.60
2022-08-12T19:16:11.301Z,25.50
2022-08-12T19:18:44.849Z,25.40
2022-08-12T19:21:16.978Z,25.30
2022-08-12T19:24:12.582Z,25.30
2022-08-12T19:26:42.509Z,25.30
2022-08-12T19:29:11.743Z,25.30
2022-08-12T19:31:58.012Z,25.20
2022-08-12T19:37:27.167Z,25.00
2022-08-12T19:40:09.282Z,25.00
2022-08-12T19:42:53.597Z,25.00
2022-08-12T19:45:43.460Z,25.10
2022-08-12T19:48:17.997Z,25.00
2022-08-12T19:50:52.557Z,25.10
2022-08-12T19:53:23.452Z,25.00
2022-08-12T19:55:55.667Z,24.80
2022-08-12T19:58:25.668Z,24.70
2022-08-12T20:00:56.053Z,24.70
2022-08-12T20:03:39.561Z,24.60
2022-08-12T20:06:16.068Z,24.50
2022-08-12T20:08:56.519Z,24.40
2022-08-12T20:12:13.854Z,24.40
2022-08-12T20:14:19.486Z,24.40
2022-08-12T20:16:52.982Z,24.30
2022-08-12T20:19:28.591Z,24.40
2022-08-12T20:22:24.704Z,24.30
2022-08-12T20:25:01.333Z,24.30
2022-08-12T20:28:04.299Z,24.30
2022-08-12T20:30:37.298Z,24.10
2022-08-12T20:33:18.492Z,24.10
2022-08-12T20:36:06.953Z,24.00
2022-08-12T20:38:46.049Z,24.10
2022-08-12T20:41:17.683Z,23.90
2022-08-12T20:43:52.179Z,23.80
2022-08-12T20:46:22.026Z,23.70
2022-08-12T20:48:55.300Z,23.60
2022-08-12T20:51:28.036Z,23.50
2022-08-12T20:53:59.649Z,23.40
2022-08-12T20:56:34.200Z,23.30
2022-08-12T20:59:10.271Z,23.20
2022-08-12T21:01:47.449Z,23.10
2022-08-12T21:04:37.282Z,23.10
2022-08-12T21:07:09.243Z,23.00
2022-08-12T21:09:42.694Z,23.00
2022-08-12T21:12:28.262Z,22.90
2022-08-12T21:15:24.336Z,22.90
2022-08-12T21:18:11.253Z,22.80
2022-08-12T21:20:53.097Z,22.80
2022-08-12T21:23:23.378Z,22.70
2022-08-12T21:25:56.717Z,22.60
2022-08-12T21:28:31.537Z,22.50
2022-08-12T21:32:34.395Z,22.30
2022-08-12T21:34:08.964Z,22.20
2022-08-12T21:36:43.405Z,22.00
2022-08-12T21:39:21.272Z,21.80
2022-08-12T21:41:52.566Z,21.60
2022-08-12T21:44:24.834Z,21.40
2022-08-12T21:47:21.367Z,21.30
2022-08-12T21:50:06.431Z,21.20
2022-08-12T21:52:39.216Z,21.10
2022-08-12T21:55:18.592Z,21.00
2022-08-12T21:57:50.848Z,21.00
2022-08-12T22:04:01.947Z,20.70
2022-08-12T22:06:30.519Z,20.70
2022-08-12T22:09:03.837Z,20.50
2022-08-12T22:11:42.468Z,20.40
2022-08-12T22:14:21.404Z,20.30
2022-08-12T22:16:54.385Z,20.20
2022-08-12T22:19:24.533Z,20.20
2022-08-12T22:21:56.084Z,20.20
2022-08-12T22:24:29.751Z,20.00
2022-08-12T22:27:17.832Z,20.00
2022-08-12T22:30:06.871Z,20.00
2022-08-12T22:32:38.609Z,19.90
2022-08-12T22:35:29.370Z,19.80
2022-08-12T22:38:11.005Z,19.80
2022-08-12T22:40:40.583Z,19.70
2022-08-12T22:43:29.542Z,19.60
2022-08-12T22:46:15.192Z,19.60
2022-08-12T22:48:50.262Z,19.50
2022-08-12T22:51:22.345Z,19.50
2022-08-12T22:53:54.734Z,19.50
2022-08-12T22:56:30.813Z,19.50
2022-08-12T22:59:02.585Z,19.50
2022-08-12T23:02:01.042Z,19.40
2022-08-12T23:04:27.571Z,19.40
2022-08-12T23:07:05.422Z,19.40
2022-08-12T23:09:47.957Z,19.30
2022-08-12T23:12:46.596Z,19.30
2022-08-12T23:15:14.606Z,19.20
2022-08-12T23:17:43.443Z,19.10
2022-08-12T23:20:15.065Z,19.10
2022-08-12T23:23:08.721Z,19.00
2022-08-12T23:25:54.783Z,19.00
2022-08-12T23:28:39.655Z,19.00
2022-08-12T23:31:10.768Z,19.10
2022-08-12T23:34:02.173Z,19.00
2022-08-12T23:36:39.893Z,19.00
2022-08-12T23:40:13.158Z,19.00
2022-08-12T23:42:17.442Z,18.90
2022-08-12T23:44:48.402Z,18.80
2022-08-12T23:47:21.705Z,18.80
2022-08-12T23:49:57.075Z,18.70
2022-08-12T23:52:34.731Z,18.70
2022-08-12T23:55:24.941Z,18.60
2022-08-12T23:58:22.433Z,18.60
